createdAt,value
2022-11-19T06:05:16.495Z,-1.38
2022-11-19T06:08:20.120Z,-1.38
2022-11-19T06:10:47.674Z,-1.36
2022-11-19T06:13:14.831Z,-1.43
2022-11-19T06:15:41.381Z,-1.53
2022-11-19T06:18:08.558Z,-1.56
2022-11-19T06:20:35.089Z,-1.60
2022-11-19T06:23:02.225Z,-1.67
2022-11-19T06:25:29.543Z,-1.64
2022-11-19T06:27:56.694Z,-1.64
2022-11-19T06:30:23.224Z,-1.73
2022-11-19T06:32:50.365Z,-1.72
2022-11-19T06:35:17.109Z,-1.78
2022-11-19T06:37:44.385Z,-1.75
2022-11-19T06:40:11.681Z,-1.81
2022-11-19T06:42:38.947Z,-1.81
2022-11-19T06:45:14.782Z,-1.75
2022-11-19T06:47:42.731Z,-1.76
2022-11-19T06:50:10.568Z,-1.80
2022-11-19T06:52:38.215Z,-1.75
2022-11-19T06:55:05.174Z,-1.78
2022-11-19T06:57:32.517Z,-1.84
2022-11-19T06:59:59.066Z,-1.84
2022-11-19T07:02:29.040Z,-1.79
2022-11-19T07:04:55.717Z,-1.82
2022-11-19T07:07:22.942Z,-1.84
2022-11-19T07:09:49.515Z,-1.84
2022-11-19T07:12:16.681Z,-1.87
2022-11-19T07:14:43.290Z,-1.89
2022-11-19T07:17:10.166Z,-1.86
2022-11-19T07:19:36.731Z,-1.86
2022-11-19T07:22:03.940Z,-1.86
2022-11-19T07:24:30.469Z,-1.84
2022-11-19T07:26:57.699Z,-1.86
2022-11-19T07:29:24.409Z,-1.86
2022-11-19T07:31:53.492Z,-1.92
2022-11-19T07:34:20.690Z,-1.90
2022-11-19T07:36:48.685Z,-1.94
2022-11-19T07:39:15.560Z,-1.92
2022-11-19T07:42:01.365Z,-1.90
2022-11-19T07:44:27.922Z,-1.94
2022-11-19T07:46:55.075Z,-1.91
2022-11-19T07:49:22.192Z,-1.88
2022-11-19T07:51:49.358Z,-1.94
2022-11-19T07:54:16.307Z,-2.00
2022-11-19T07:56:43.872Z,-2.00
2022-11-19T07:59:11.125Z,-2.02
2022-11-19T08:01:38.855Z,-2.01
2022-11-19T08:04:05.784Z,-2.01
2022-11-19T08:06:34.873Z,-2.00
2022-11-19T08:09:03.810Z,-1.96
2022-11-19T08:11:31.399Z,-2.01
2022-11-19T08:14:01.796Z,-1.97
2022-11-19T08:16:48.148Z,-2.01
2022-11-19T08:19:16.141Z,-2.02
2022-11-19T08:21:46.035Z,-2.01
2022-11-19T08:24:13.791Z,-1.97
2022-11-19T08:26:41.397Z,-2.00
2022-11-19T08:29:13.029Z,-2.04
2022-11-19T08:31:45.222Z,-2.02
2022-11-19T08:34:12.279Z,-1.97
2022-11-19T08:36:39.967Z,-1.96
2022-11-19T08:39:06.981Z,-1.93
2022-11-19T08:41:53.002Z,-1.92
2022-11-19T08:44:20.083Z,-1.93
2022-11-19T08:46:47.729Z,-1.97
2022-11-19T08:49:14.463Z,-1.98
2022-11-19T08:51:41.809Z,-1.93
2022-11-19T08:54:08.742Z,-1.95
2022-11-19T08:56:35.991Z,-1.95
2022-11-19T08:59:03.486Z,-1.99
2022-11-19T09:01:31.143Z,-2.01
2022-11-19T09:03:57.898Z,-1.98
2022-11-19T09:06:25.292Z,-1.96
2022-11-19T09:08:52.025Z,-1.99
2022-11-19T09:11:21.263Z,-1.97
2022-11-19T09:13:48.825Z,-1.95
2022-11-19T09:16:15.775Z,-1.94
2022-11-19T09:18:43.259Z,-1.94
2022-11-19T09:21:11.176Z,-1.90
2022-11-19T09:23:39.430Z,-1.91
2022-11-19T09:26:08.991Z,-1.91
2022-11-19T09:28:36.538Z,-1.92
2022-11-19T09:31:11.780Z,-1.92
2022-11-19T09:33:44.766Z,-1.90
2022-11-19T09:36:12.670Z,-1.87
2022-11-19T09:38:41.184Z,-1.87
2022-11-19T09:41:29.737Z,-1.84
2022-11-19T09:44:49.990Z,-1.84
2022-11-19T09:47:27.330Z,-1.81
2022-11-19T09:50:18.254Z,-1.78
2022-11-19T09:52:56.450Z,-1.73
2022-11-19T09:55:31.710Z,-1.72
2022-11-19T09:58:00.394Z,-1.70
2022-11-19T10:00:30.002Z,-1.65
2022-11-19T10:02:59.305Z,-1.63
2022-11-19T10:05:35.247Z,-1.60
2022-11-19T10:08:23.046Z,-1.57
2022-11-19T10:10:55.183Z,-1.52
2022-11-19T10:13:49.665Z,-1.48
2022-11-19T10:16:28.682Z,-1.44
2022-11-19T10:19:16.785Z,-1.40
2022-11-19T10:21:59.105Z,-1.37
2022-11-19T10:24:45.284Z,-1.33
2022-11-19T10:27:30.812Z,-1.29
2022-11-19T10:30:02.994Z,-1.24
2022-11-19T10:32:37.505Z,-1.21
2022-11-19T10:35:15.293Z,-1.15
2022-11-19T10:37:53.754Z,-1.09
2022-11-19T10:40:24.157Z,-1.06
2022-11-19T10:43:01.868Z,-1.06
2022-11-19T10:45:29.997Z,-1.02
2022-11-19T10:48:09.385Z,-0.99
2022-11-19T10:50:36.518Z,-0.97
2022-11-19T10:53:26.983Z,-0.94
2022-11-19T10:56:00.524Z,-0.92
2022-11-19T10:58:37.225Z,-0.90
2022-11-19T11:01:14.203Z,-0.86
2022-11-19T11:03:49.351Z,-0.83
2022-11-19T11:06:15.946Z,-0.80
2022-11-19T11:08:51.966Z,-0.78
2022-11-19T11:11:50.177Z,-0.75
2022-11-19T11:14:38.941Z,-0.72
2022-11-19T11:17:25.899Z,-0.68
2022-11-19T11:20:03.753Z,-0.65
2022-11-19T11:22:31.330Z,-0.64
2022-11-19T11:25:04.258Z,-0.62
2022-11-19T11:27:35.864Z,-0.60
2022-11-19T11:30:05.984Z,-0.55
2022-11-19T11:32:33.379Z,-0.52
2022-11-19T11:35:05.113Z,-0.47
2022-11-19T11:37:34.191Z,-0.42
2022-11-19T11:40:01.222Z,-0.38
2022-11-19T11:42:29.775Z,-0.34
2022-11-19T11:44:59.838Z,-0.31
2022-11-19T11:47:29.122Z,-0.31
2022-11-19T18:41:39.743Z,24.24
2022-11-19T18:44:26.326Z,23.52
2022-11-19T18:46:52.893Z,23.05
2022-11-19T18:49:19.889Z,23.07
2022-11-19T18:51:47.850Z,23.00
2022-11-19T18:54:14.938Z,23.27
2022-11-19T18:56:41.625Z,23.34
2022-11-19T19:01:24.271Z,21.96
2022-11-19T19:03:52.272Z,21.55
2022-11-19T19:06:19.614Z,21.34
2022-11-19T19:08:46.601Z,21.23
2022-11-19T19:11:32.234Z,21.18
2022-11-19T19:13:59.012Z,21.15
2022-11-19T19:16:26.324Z,21.13
2022-11-19T19:18:52.900Z,21.14
2022-11-19T19:21:22.011Z,21.13
2022-11-19T19:23:49.184Z,21.13
2022-11-19T19:26:17.841Z,21.13
2022-11-19T19:28:50.370Z,21.13
2022-11-19T19:31:18.315Z,21.16
2022-11-19T19:33:48.345Z,21.15
2022-11-19T19:36:16.520Z,21.16
2022-11-19T19:38:43.356Z,21.17
2022-11-19T19:41:16.727Z,21.17
2022-11-19T19:43:43.980Z,21.18
2022-11-19T19:46:16.561Z,21.19
2022-11-19T19:48:48.286Z,21.20
2022-11-19T19:51:16.798Z,21.20
2022-11-19T19:53:43.690Z,21.20
2022-11-19T19:56:12.331Z,21.20
2022-11-19T19:58:39.269Z,21.21
2022-11-19T20:01:08.346Z,21.22
2022-11-19T20:03:36.272Z,21.21
2022-11-19T20:06:05.712Z,21.22
2022-11-19T20:08:33.954Z,21.23
2022-11-19T20:11:03.387Z,21.22
2022-11-19T20:13:32.017Z,21.22
2022-11-19T20:16:17.564Z,21.23
2022-11-19T20:18:46.571Z,21.23
2022-11-19T20:21:16.556Z,21.24
2022-11-19T20:23:43.558Z,21.25
2022-11-19T20:26:13.066Z,21.26
2022-11-19T20:28:40.219Z,21.26
2022-11-19T20:31:10.746Z,21.27
2022-11-19T20:33:38.534Z,21.28
2022-11-19T20:36:07.330Z,21.28
2022-11-19T20:38:38.793Z,21.28
2022-11-19T20:41:28.379Z,21.29
2022-11-19T20:44:14.419Z,21.28
2022-11-19T20:46:41.868Z,21.29
2022-11-19T20:49:10.566Z,21.29
2022-11-19T20:51:40.844Z,21.30
2022-11-19T20:54:08.856Z,21.30
2022-11-19T20:56:37.058Z,21.30
2022-11-19T20:59:04.849Z,21.30
2022-11-19T21:01:33.108Z,21.30
2022-11-19T21:03:59.985Z,21.30
2022-11-19T21:06:27.310Z,21.31
2022-11-19T21:08:53.860Z,21.31
2022-11-19T21:11:21.055Z,21.31
2022-11-19T21:13:47.635Z,21.31
2022-11-19T21:16:23.351Z,21.29
2022-11-19T21:18:50.657Z,21.28
2022-11-19T21:21:19.604Z,21.28
2022-11-19T21:23:46.407Z,21.26
2022-11-19T21:26:19.885Z,21.26
2022-11-19T21:28:49.440Z,21.24
